sensor_id;sensor_type;location;lat;lon;timestamp;P1;durP1;ratioP1;P2;durP2;ratioP2
2173;SDS011;1093;51.424;11.764;2023-04-30T00:00:40;11.03;;;9.00;;
2173;SDS011;1093;51.424;11.764;2023-04-30T00:03:08;12.53;;;10.03;;
2173;SDS011;1093;51.424;11.764;2023-04-30T00:05:35;12.23;;;9.07;;
2173;SDS011;1093;51.424;11.764;2023-04-30T00:08:02;9.70;;;7.87;;
2173;SDS011;1093;51.424;11.764;2023-04-30T00:10:29;12.87;;;8.40;;
2173;SDS011;1093;51.424;11.764;2023-04-30T00:12:56;11.63;;;9.43;;
2173;SDS011;1093;51.424;11.764;2023-04-30T00:15:23;13.93;;;9.30;;
2173;SDS011;1093;51.424;11.764;2023-04-30T00:17:49;13.27;;;8.53;;
2173;SDS011;1093;51.424;11.764;2023-04-30T00:20:18;10.93;;;9.13;;
2173;SDS011;1093;51.424;11.764;2023-04-30T00:22:45;11.80;;;8.60;;
2173;SDS011;1093;51.424;11.764;2023-04-30T00:25:11;11.13;;;8.03;;
2173;SDS011;1093;51.424;11.764;2023-04-30T00:27:38;8.00;;;6.83;;
2173;SDS011;1093;51.424;11.764;2023-04-30T00:30:06;10.00;;;8.30;;
2173;SDS011;1093;51.424;11.764;2023-04-30T00:32:33;12.27;;;7.33;;
2173;SDS011;1093;51.424;11.764;2023-04-30T00:35:00;13.03;;;8.63;;
2173;SDS011;1093;51.424;11.764;2023-04-30T00:37:28;13.23;;;7.70;;
2173;SDS011;1093;51.424;11.764;2023-04-30T00:39:55;9.50;;;7.43;;
2173;SDS011;1093;51.424;11.764;2023-04-30T00:42:21;11.27;;;8.83;;
2173;SDS011;1093;51.424;11.764;2023-04-30T00:44:48;14.33;;;8.73;;
2173;SDS011;1093;51.424;11.764;2023-04-30T00:47:15;11.57;;;8.97;;
2173;SDS011;1093;51.424;11.764;2023-04-30T00:49:43;9.23;;;7.57;;
2173;SDS011;1093;51.424;11.764;2023-04-30T00:52:10;16.37;;;7.77;;
2173;SDS011;1093;51.424;11.764;2023-04-30T00:54:38;10.80;;;7.67;;
2173;SDS011;1093;51.424;11.764;2023-04-30T00:57:06;11.60;;;9.93;;
2173;SDS011;1093;51.424;11.764;2023-04-30T00:59:37;10.30;;;7.83;;
2173;SDS011;1093;51.424;11.764;2023-04-30T01:02:04;17.10;;;10.13;;
2173;SDS011;1093;51.424;11.764;2023-04-30T01:04:31;12.07;;;8.87;;
2173;SDS011;1093;51.424;11.764;2023-04-30T01:06:58;13.03;;;8.70;;
2173;SDS011;1093;51.424;11.764;2023-04-30T01:09:26;12.17;;;7.33;;
2173;SDS011;1093;51.424;11.764;2023-04-30T01:11:59;12.10;;;8.00;;
2173;SDS011;1093;51.424;11.764;2023-04-30T01:14:30;10.40;;;7.47;;
2173;SDS011;1093;51.424;11.764;2023-04-30T01:17:11;12.03;;;8.53;;
2173;SDS011;1093;51.424;11.764;2023-04-30T01:19:44;11.37;;;8.07;;
2173;SDS011;1093;51.424;11.764;2023-04-30T01:22:13;9.43;;;8.40;;
2173;SDS011;1093;51.424;11.764;2023-04-30T01:25:00;11.40;;;7.60;;
2173;SDS011;1093;51.424;11.764;2023-04-30T01:27:45;11.17;;;7.53;;
2173;SDS011;1093;51.424;11.764;2023-04-30T01:30:25;9.70;;;8.37;;
2173;SDS011;1093;51.424;11.764;2023-04-30T01:32:52;7.73;;;7.03;;
2173;SDS011;1093;51.424;11.764;2023-04-30T01:35:19;12.20;;;6.90;;
2173;SDS011;1093;51.424;11.764;2023-04-30T01:37:54;11.27;;;7.73;;
2173;SDS011;1093;51.424;11.764;2023-04-30T01:40:31;12.57;;;7.87;;
2173;SDS011;1093;51.424;11.764;2023-04-30T01:43:07;10.27;;;8.50;;
2173;SDS011;1093;51.424;11.764;2023-04-30T01:45:44;12.83;;;7.07;;
2173;SDS011;1093;51.424;11.764;2023-04-30T01:48:18;10.20;;;6.90;;
2173;SDS011;1093;51.424;11.764;2023-04-30T01:50:48;9.77;;;7.60;;
2173;SDS011;1093;51.424;11.764;2023-04-30T01:53:19;11.53;;;8.03;;
2173;SDS011;1093;51.424;11.764;2023-04-30T01:55:50;8.70;;;7.23;;
2173;SDS011;1093;51.424;11.764;2023-04-30T01:58:21;14.50;;;8.10;;
2173;SDS011;1093;51.424;11.764;2023-04-30T02:00:49;11.97;;;8.37;;
2173;SDS011;1093;51.424;11.764;2023-04-30T02:03:17;15.67;;;8.37;;
2173;SDS011;1093;51.424;11.764;2023-04-30T02:05:44;10.23;;;8.13;;
2173;SDS011;1093;51.424;11.764;2023-04-30T02:08:10;10.03;;;8.27;;
2173;SDS011;1093;51.424;11.764;2023-04-30T02:10:37;15.53;;;7.40;;
2173;SDS011;1093;51.424;11.764;2023-04-30T02:13:04;12.37;;;8.87;;
2173;SDS011;1093;51.424;11.764;2023-04-30T02:15:32;11.00;;;8.37;;
2173;SDS011;1093;51.424;11.764;2023-04-30T02:17:59;13.90;;;8.70;;
2173;SDS011;1093;51.424;11.764;2023-04-30T02:20:25;14.07;;;8.80;;
2173;SDS011;1093;51.424;11.764;2023-04-30T02:22:52;10.57;;;7.93;;
2173;SDS011;1093;51.424;11.764;2023-04-30T02:25:19;14.33;;;9.10;;
2173;SDS011;1093;51.424;11.764;2023-04-30T02:27:45;12.07;;;8.23;;
2173;SDS011;1093;51.424;11.764;2023-04-30T02:30:14;14.00;;;8.37;;
2173;SDS011;1093;51.424;11.764;2023-04-30T02:32:42;8.53;;;7.53;;
2173;SDS011;1093;51.424;11.764;2023-04-30T02:35:09;12.80;;;10.17;;
2173;SDS011;1093;51.424;11.764;2023-04-30T02:37:36;12.70;;;8.27;;
2173;SDS011;1093;51.424;11.764;2023-04-30T02:40:03;18.23;;;8.30;;
2173;SDS011;1093;51.424;11.764;2023-04-30T02:42:30;14.10;;;9.83;;
2173;SDS011;1093;51.424;11.764;2023-04-30T02:44:57;15.73;;;9.57;;
2173;SDS011;1093;51.424;11.764;2023-04-30T02:47:24;11.47;;;8.97;;
2173;SDS011;1093;51.424;11.764;2023-04-30T02:49:51;13.07;;;8.53;;
2173;SDS011;1093;51.424;11.764;2023-04-30T02:52:18;16.07;;;10.43;;
2173;SDS011;1093;51.424;11.764;2023-04-30T02:54:45;15.93;;;8.07;;
2173;SDS011;1093;51.424;11.764;2023-04-30T02:57:12;16.37;;;9.57;;
2173;SDS011;1093;51.424;11.764;2023-04-30T02:59:38;12.47;;;8.00;;
2173;SDS011;1093;51.424;11.764;2023-04-30T03:02:09;12.33;;;7.83;;
2173;SDS011;1093;51.424;11.764;2023-04-30T03:04:36;11.03;;;7.03;;
2173;SDS011;1093;51.424;11.764;2023-04-30T03:07:04;9.33;;;8.30;;
2173;SDS011;1093;51.424;11.764;2023-04-30T03:09:31;11.77;;;8.23;;
2173;SDS011;1093;51.424;11.764;2023-04-30T03:11:58;13.67;;;8.17;;
2173;SDS011;1093;51.424;11.764;2023-04-30T03:14:26;15.10;;;8.47;;
2173;SDS011;1093;51.424;11.764;2023-04-30T03:16:53;12.27;;;8.07;;
2173;SDS011;1093;51.424;11.764;2023-04-30T03:19:20;11.67;;;7.50;;
2173;SDS011;1093;51.424;11.764;2023-04-30T03:21:49;13.50;;;7.10;;
2173;SDS011;1093;51.424;11.764;2023-04-30T03:24:17;14.87;;;7.80;;
2173;SDS011;1093;51.424;11.764;2023-04-30T03:26:44;10.77;;;7.03;;
2173;SDS011;1093;51.424;11.764;2023-04-30T03:29:10;10.00;;;7.40;;
2173;SDS011;1093;51.424;11.764;2023-04-30T03:31:37;13.80;;;7.90;;
2173;SDS011;1093;51.424;11.764;2023-04-30T03:34:04;9.97;;;7.80;;
2173;SDS011;1093;51.424;11.764;2023-04-30T03:36:30;11.30;;;7.03;;
2173;SDS011;1093;51.424;11.764;2023-04-30T03:38:57;13.10;;;7.90;;
2173;SDS011;1093;51.424;11.764;2023-04-30T03:41:25;15.37;;;7.03;;
2173;SDS011;1093;51.424;11.764;2023-04-30T03:43:52;17.23;;;8.57;;
2173;SDS011;1093;51.424;11.764;2023-04-30T03:46:19;10.37;;;9.03;;
2173;SDS011;1093;51.424;11.764;2023-04-30T03:48:46;16.87;;;9.07;;
2173;SDS011;1093;51.424;11.764;2023-04-30T03:51:13;14.30;;;9.23;;
2173;SDS011;1093;51.424;11.764;2023-04-30T03:53:39;11.87;;;7.93;;
2173;SDS011;1093;51.424;11.764;2023-04-30T03:56:06;12.40;;;9.03;;
2173;SDS011;1093;51.424;11.764;2023-04-30T03:58:34;18.57;;;9.97;;
2173;SDS011;1093;51.424;11.764;2023-04-30T04:01:01;13.90;;;7.33;;
2173;SDS011;1093;51.424;11.764;2023-04-30T04:03:29;12.43;;;8.80;;
2173;SDS011;1093;51.424;11.764;2023-04-30T04:05:56;12.10;;;8.43;;
2173;SDS011;1093;51.424;11.764;2023-04-30T04:08:22;12.43;;;8.97;;
2173;SDS011;1093;51.424;11.764;2023-04-30T04:10:49;12.37;;;9.53;;
2173;SDS011;1093;51.424;11.764;2023-04-30T04:13:16;18.50;;;9.60;;
2173;SDS011;1093;51.424;11.764;2023-04-30T04:15:44;12.73;;;8.73;;
2173;SDS011;1093;51.424;11.764;2023-04-30T04:18:11;13.67;;;9.57;;
2173;SDS011;1093;51.424;11.764;2023-04-30T04:20:38;12.33;;;8.07;;
2173;SDS011;1093;51.424;11.764;2023-04-30T04:23:04;13.60;;;8.97;;
2173;SDS011;1093;51.424;11.764;2023-04-30T04:25:31;14.17;;;10.00;;
2173;SDS011;1093;51.424;11.764;2023-04-30T04:27:58;19.03;;;13.13;;
2173;SDS011;1093;51.424;11.764;2023-04-30T04:30:25;12.80;;;9.57;;
2173;SDS011;1093;51.424;11.764;2023-04-30T04:32:53;12.27;;;8.47;;
2173;SDS011;1093;51.424;11.764;2023-04-30T04:35:21;14.40;;;9.80;;
2173;SDS011;1093;51.424;11.764;2023-04-30T04:37:47;14.03;;;8.50;;
2173;SDS011;1093;51.424;11.764;2023-04-30T04:40:14;20.23;;;10.53;;
2173;SDS011;1093;51.424;11.764;2023-04-30T04:42:41;13.50;;;10.00;;
2173;SDS011;1093;51.424;11.764;2023-04-30T04:45:08;11.57;;;7.97;;
2173;SDS011;1093;51.424;11.764;2023-04-30T04:47:36;14.67;;;8.50;;
2173;SDS011;1093;51.424;11.764;2023-04-30T04:50:04;14.43;;;8.70;;
2173;SDS011;1093;51.424;11.764;2023-04-30T04:52:32;18.00;;;8.93;;
2173;SDS011;1093;51.424;11.764;2023-04-30T04:54:58;14.13;;;8.47;;
2173;SDS011;1093;51.424;11.764;2023-04-30T04:57:25;13.23;;;8.90;;
2173;SDS011;1093;51.424;11.764;2023-04-30T04:59:52;11.50;;;7.23;;
2173;SDS011;1093;51.424;11.764;2023-04-30T05:02:19;12.03;;;8.20;;
2173;SDS011;1093;51.424;11.764;2023-04-30T05:04:47;9.50;;;6.60;;
2173;SDS011;1093;51.424;11.764;2023-04-30T05:07:16;11.10;;;7.20;;
2173;SDS011;1093;51.424;11.764;2023-04-30T05:09:43;14.87;;;7.93;;
2173;SDS011;1093;51.424;11.764;2023-04-30T05:12:10;9.70;;;7.63;;
2173;SDS011;1093;51.424;11.764;2023-04-30T05:14:37;19.40;;;6.90;;
2173;SDS011;1093;51.424;11.764;2023-04-30T05:17:03;9.43;;;7.47;;
2173;SDS011;1093;51.424;11.764;2023-04-30T05:19:30;10.57;;;7.93;;
2173;SDS011;1093;51.424;11.764;2023-04-30T05:21:57;15.20;;;6.33;;
2173;SDS011;1093;51.424;11.764;2023-04-30T05:24:27;12.93;;;7.10;;
2173;SDS011;1093;51.424;11.764;2023-04-30T05:26:54;20.23;;;6.53;;
2173;SDS011;1093;51.424;11.764;2023-04-30T05:29:21;11.30;;;8.20;;
2173;SDS011;1093;51.424;11.764;2023-04-30T05:31:47;12.80;;;6.10;;
2173;SDS011;1093;51.424;11.764;2023-04-30T05:34:14;14.07;;;6.40;;
2173;SDS011;1093;51.424;11.764;2023-04-30T05:36:41;8.87;;;6.67;;
2173;SDS011;1093;51.424;11.764;2023-04-30T05:39:08;10.00;;;6.20;;
2173;SDS011;1093;51.424;11.764;2023-04-30T05:41:36;9.77;;;6.40;;
2173;SDS011;1093;51.424;11.764;2023-04-30T05:44:03;10.73;;;5.90;;
2173;SDS011;1093;51.424;11.764;2023-04-30T05:46:30;10.00;;;5.50;;
2173;SDS011;1093;51.424;11.764;2023-04-30T05:48:57;7.37;;;5.47;;
2173;SDS011;1093;51.424;11.764;2023-04-30T05:51:24;10.20;;;6.50;;
2173;SDS011;1093;51.424;11.764;2023-04-30T05:53:51;11.97;;;7.17;;
2173;SDS011;1093;51.424;11.764;2023-04-30T05:56:18;12.13;;;6.07;;
2173;SDS011;1093;51.424;11.764;2023-04-30T05:58:47;11.00;;;6.10;;
2173;SDS011;1093;51.424;11.764;2023-04-30T06:01:15;6.00;;;5.27;;
2173;SDS011;1093;51.424;11.764;2023-04-30T06:03:43;11.23;;;5.50;;
2173;SDS011;1093;51.424;11.764;2023-04-30T06:06:10;8.83;;;5.20;;
2173;SDS011;1093;51.424;11.764;2023-04-30T06:08:36;27.07;;;6.43;;
2173;SDS011;1093;51.424;11.764;2023-04-30T06:11:06;7.97;;;5.27;;
2173;SDS011;1093;51.424;11.764;2023-04-30T06:13:33;16.03;;;6.23;;
2173;SDS011;1093;51.424;11.764;2023-04-30T06:16:02;10.43;;;5.47;;
2173;SDS011;1093;51.424;11.764;2023-04-30T06:18:28;10.07;;;5.40;;
2173;SDS011;1093;51.424;11.764;2023-04-30T06:20:55;11.77;;;5.30;;
2173;SDS011;1093;51.424;11.764;2023-04-30T06:23:22;11.67;;;6.13;;
2173;SDS011;1093;51.424;11.764;2023-04-30T06:25:49;12.07;;;5.10;;
2173;SDS011;1093;51.424;11.764;2023-04-30T06:28:15;13.43;;;5.70;;
2173;SDS011;1093;51.424;11.764;2023-04-30T06:30:42;10.23;;;5.33;;
2173;SDS011;1093;51.424;11.764;2023-04-30T06:33:10;7.73;;;4.37;;
2173;SDS011;1093;51.424;11.764;2023-04-30T06:35:38;13.70;;;6.50;;
2173;SDS011;1093;51.424;11.764;2023-04-30T06:38:05;16.70;;;5.83;;
2173;SDS011;1093;51.424;11.764;2023-04-30T06:40:32;10.70;;;5.80;;
2173;SDS011;1093;51.424;11.764;2023-04-30T06:42:59;9.07;;;5.30;;
2173;SDS011;1093;51.424;11.764;2023-04-30T06:45:25;8.63;;;4.83;;
2173;SDS011;1093;51.424;11.764;2023-04-30T06:47:53;7.87;;;4.13;;
2173;SDS011;1093;51.424;11.764;2023-04-30T06:50:21;10.97;;;4.80;;
2173;SDS011;1093;51.424;11.764;2023-04-30T06:52:48;9.83;;;4.27;;
2173;SDS011;1093;51.424;11.764;2023-04-30T06:55:14;11.70;;;4.97;;
2173;SDS011;1093;51.424;11.764;2023-04-30T06:57:41;9.73;;;4.90;;
2173;SDS011;1093;51.424;11.764;2023-04-30T07:00:09;8.13;;;4.90;;
2173;SDS011;1093;51.424;11.764;2023-04-30T07:02:36;8.50;;;5.30;;
2173;SDS011;1093;51.424;11.764;2023-04-30T07:05:03;9.97;;;4.70;;
2173;SDS011;1093;51.424;11.764;2023-04-30T07:07:32;14.53;;;4.53;;
2173;SDS011;1093;51.424;11.764;2023-04-30T07:09:58;7.90;;;4.60;;
2173;SDS011;1093;51.424;11.764;2023-04-30T07:12:25;9.83;;;5.00;;
2173;SDS011;1093;51.424;11.764;2023-04-30T07:14:52;11.80;;;4.20;;
2173;SDS011;1093;51.424;11.764;2023-04-30T07:17:19;12.87;;;4.53;;
2173;SDS011;1093;51.424;11.764;2023-04-30T07:19:46;9.73;;;4.60;;
2173;SDS011;1093;51.424;11.764;2023-04-30T07:22:12;9.97;;;4.60;;
2173;SDS011;1093;51.424;11.764;2023-04-30T07:24:41;9.87;;;4.17;;
2173;SDS011;1093;51.424;11.764;2023-04-30T07:27:07;11.03;;;4.87;;
2173;SDS011;1093;51.424;11.764;2023-04-30T07:29:34;10.63;;;5.27;;
2173;SDS011;1093;51.424;11.764;2023-04-30T07:32:01;10.27;;;3.97;;
2173;SDS011;1093;51.424;11.764;2023-04-30T07:34:28;7.73;;;4.10;;
2173;SDS011;1093;51.424;11.764;2023-04-30T07:36:56;14.47;;;5.00;;
2173;SDS011;1093;51.424;11.764;2023-04-30T07:39:23;9.20;;;4.73;;
2173;SDS011;1093;51.424;11.764;2023-04-30T07:41:51;13.07;;;4.03;;
2173;SDS011;1093;51.424;11.764;2023-04-30T07:44:17;6.50;;;3.97;;
2173;SDS011;1093;51.424;11.764;2023-04-30T07:46:45;13.80;;;4.80;;
2173;SDS011;1093;51.424;11.764;2023-04-30T07:49:12;14.00;;;4.60;;
2173;SDS011;1093;51.424;11.764;2023-04-30T07:51:39;11.00;;;5.03;;
2173;SDS011;1093;51.424;11.764;2023-04-30T07:54:07;6.60;;;4.77;;
2173;SDS011;1093;51.424;11.764;2023-04-30T07:56:33;7.67;;;5.03;;
2173;SDS011;1093;51.424;11.764;2023-04-30T07:59:02;18.43;;;6.47;;
2173;SDS011;1093;51.424;11.764;2023-04-30T08:01:28;10.80;;;5.83;;
2173;SDS011;1093;51.424;11.764;2023-04-30T08:03:55;6.13;;;3.80;;
2173;SDS011;1093;51.424;11.764;2023-04-30T08:06:22;9.80;;;5.87;;
2173;SDS011;1093;51.424;11.764;2023-04-30T08:08:49;9.57;;;5.80;;
2173;SDS011;1093;51.424;11.764;2023-04-30T08:11:15;9.40;;;4.13;;
2173;SDS011;1093;51.424;11.764;2023-04-30T08:13:42;7.13;;;4.57;;
2173;SDS011;1093;51.424;11.764;2023-04-30T08:16:10;9.80;;;4.57;;
2173;SDS011;1093;51.424;11.764;2023-04-30T08:18:37;16.20;;;3.77;;
2173;SDS011;1093;51.424;11.764;2023-04-30T08:21:07;8.43;;;4.50;;
2173;SDS011;1093;51.424;11.764;2023-04-30T08:23:34;10.10;;;3.90;;
2173;SDS011;1093;51.424;11.764;2023-04-30T08:26:01;10.43;;;4.20;;
2173;SDS011;1093;51.424;11.764;2023-04-30T08:28:28;7.60;;;3.83;;
2173;SDS011;1093;51.424;11.764;2023-04-30T08:30:55;10.80;;;4.23;;
2173;SDS011;1093;51.424;11.764;2023-04-30T08:33:25;10.03;;;4.70;;
2173;SDS011;1093;51.424;11.764;2023-04-30T08:35:52;5.87;;;4.10;;
2173;SDS011;1093;51.424;11.764;2023-04-30T08:38:19;7.97;;;4.07;;
2173;SDS011;1093;51.424;11.764;2023-04-30T08:40:47;8.67;;;4.50;;
2173;SDS011;1093;51.424;11.764;2023-04-30T08:43:20;16.67;;;4.80;;
2173;SDS011;1093;51.424;11.764;2023-04-30T08:45:47;8.33;;;4.03;;
2173;SDS011;1093;51.424;11.764;2023-04-30T08:48:16;11.97;;;4.10;;
2173;SDS011;1093;51.424;11.764;2023-04-30T08:50:47;9.40;;;4.40;;
2173;SDS011;1093;51.424;11.764;2023-04-30T08:53:14;16.07;;;4.23;;
2173;SDS011;1093;51.424;11.764;2023-04-30T08:55:42;11.70;;;4.07;;
2173;SDS011;1093;51.424;11.764;2023-04-30T08:58:09;8.17;;;4.37;;
2173;SDS011;1093;51.424;11.764;2023-04-30T09:00:37;8.03;;;3.70;;
2173;SDS011;1093;51.424;11.764;2023-04-30T09:03:04;8.43;;;4.57;;
2173;SDS011;1093;51.424;11.764;2023-04-30T09:05:32;10.37;;;4.43;;
2173;SDS011;1093;51.424;11.764;2023-04-30T09:08:01;6.20;;;3.80;;
2173;SDS011;1093;51.424;11.764;2023-04-30T09:10:30;12.77;;;3.47;;
2173;SDS011;1093;51.424;11.764;2023-04-30T09:12:58;6.60;;;3.60;;
2173;SDS011;1093;51.424;11.764;2023-04-30T09:15:25;7.27;;;4.13;;
2173;SDS011;1093;51.424;11.764;2023-04-30T09:18:04;5.93;;;2.93;;
2173;SDS011;1093;51.424;11.764;2023-04-30T09:20:32;4.13;;;3.20;;
2173;SDS011;1093;51.424;11.764;2023-04-30T09:23:05;5.53;;;3.90;;
2173;SDS011;1093;51.424;11.764;2023-04-30T09:25:39;6.97;;;4.37;;
2173;SDS011;1093;51.424;11.764;2023-04-30T09:28:07;4.40;;;3.10;;
2173;SDS011;1093;51.424;11.764;2023-04-30T09:30:35;10.30;;;3.17;;
2173;SDS011;1093;51.424;11.764;2023-04-30T09:33:02;6.33;;;3.80;;
2173;SDS011;1093;51.424;11.764;2023-04-30T09:35:31;4.60;;;2.67;;
2173;SDS011;1093;51.424;11.764;2023-04-30T09:37:59;7.87;;;3.40;;
2173;SDS011;1093;51.424;11.764;2023-04-30T09:40:38;7.13;;;4.00;;
2173;SDS011;1093;51.424;11.764;2023-04-30T09:43:06;9.40;;;3.47;;
2173;SDS011;1093;51.424;11.764;2023-04-30T09:45:40;11.17;;;4.60;;
2173;SDS011;1093;51.424;11.764;2023-04-30T09:48:08;5.80;;;3.40;;
2173;SDS011;1093;51.424;11.764;2023-04-30T09:50:36;8.43;;;3.87;;
2173;SDS011;1093;51.424;11.764;2023-04-30T09:53:04;4.30;;;3.10;;
2173;SDS011;1093;51.424;11.764;2023-04-30T09:55:32;5.37;;;2.83;;
2173;SDS011;1093;51.424;11.764;2023-04-30T09:58:03;4.83;;;3.50;;
2173;SDS011;1093;51.424;11.764;2023-04-30T10:00:31;5.17;;;3.10;;
2173;SDS011;1093;51.424;11.764;2023-04-30T10:03:05;8.30;;;3.50;;
2173;SDS011;1093;51.424;11.764;2023-04-30T10:05:34;4.43;;;2.90;;
2173;SDS011;1093;51.424;11.764;2023-04-30T10:08:03;11.33;;;3.33;;
2173;SDS011;1093;51.424;11.764;2023-04-30T10:10:32;7.50;;;3.37;;
2173;SDS011;1093;51.424;11.764;2023-04-30T10:13:03;6.50;;;3.07;;
2173;SDS011;1093;51.424;11.764;2023-04-30T10:15:34;10.40;;;2.90;;
2173;SDS011;1093;51.424;11.764;2023-04-30T10:18:05;7.07;;;2.90;;
2173;SDS011;1093;51.424;11.764;2023-04-30T10:20:36;4.80;;;3.20;;
2173;SDS011;1093;51.424;11.764;2023-04-30T10:23:03;4.13;;;2.60;;
2173;SDS011;1093;51.424;11.764;2023-04-30T10:25:31;5.80;;;2.40;;
2173;SDS011;1093;51.424;11.764;2023-04-30T10:27:58;4.40;;;3.03;;
2173;SDS011;1093;51.424;11.764;2023-04-30T10:30:26;12.83;;;3.30;;
2173;SDS011;1093;51.424;11.764;2023-04-30T10:32:56;7.23;;;2.73;;
2173;SDS011;1093;51.424;11.764;2023-04-30T10:35:32;6.83;;;3.90;;
2173;SDS011;1093;51.424;11.764;2023-04-30T10:38:06;3.60;;;2.73;;
2173;SDS011;1093;51.424;11.764;2023-04-30T10:40:44;4.17;;;2.57;;
2173;SDS011;1093;51.424;11.764;2023-04-30T10:43:11;7.47;;;3.07;;
2173;SDS011;1093;51.424;11.764;2023-04-30T10:45:40;5.97;;;2.80;;
2173;SDS011;1093;51.424;11.764;2023-04-30T10:48:08;5.53;;;2.47;;
2173;SDS011;1093;51.424;11.764;2023-04-30T10:50:38;7.13;;;2.67;;
2173;SDS011;1093;51.424;11.764;2023-04-30T10:53:07;6.00;;;3.17;;
2173;SDS011;1093;51.424;11.764;2023-04-30T10:55:44;9.30;;;2.87;;
2173;SDS011;1093;51.424;11.764;2023-04-30T10:58:23;8.47;;;3.10;;
2173;SDS011;1093;51.424;11.764;2023-04-30T11:01:00;4.50;;;2.50;;
2173;SDS011;1093;51.424;11.764;2023-04-30T11:03:28;5.87;;;2.80;;
2173;SDS011;1093;51.424;11.764;2023-04-30T11:05:56;4.40;;;2.80;;
2173;SDS011;1093;51.424;11.764;2023-04-30T11:08:33;7.23;;;3.00;;
2173;SDS011;1093;51.424;11.764;2023-04-30T11:11:01;3.47;;;2.40;;
2173;SDS011;1093;51.424;11.764;2023-04-30T11:13:37;5.10;;;3.00;;
2173;SDS011;1093;51.424;11.764;2023-04-30T11:16:07;4.57;;;2.70;;
2173;SDS011;1093;51.424;11.764;2023-04-30T11:18:34;4.83;;;2.63;;
2173;SDS011;1093;51.424;11.764;2023-04-30T11:21:07;5.90;;;2.80;;
2173;SDS011;1093;51.424;11.764;2023-04-30T11:23:34;4.87;;;2.93;;
2173;SDS011;1093;51.424;11.764;2023-04-30T11:26:02;7.63;;;2.63;;
2173;SDS011;1093;51.424;11.764;2023-04-30T11:28:31;3.30;;;2.13;;
2173;SDS011;1093;51.424;11.764;2023-04-30T11:30:59;6.90;;;3.13;;
2173;SDS011;1093;51.424;11.764;2023-04-30T11:33:29;5.60;;;3.10;;
2173;SDS011;1093;51.424;11.764;2023-04-30T11:35:57;15.63;;;4.00;;
2173;SDS011;1093;51.424;11.764;2023-04-30T11:38:26;6.50;;;3.10;;
2173;SDS011;1093;51.424;11.764;2023-04-30T11:40:55;6.60;;;3.13;;
2173;SDS011;1093;51.424;11.764;2023-04-30T11:43:22;5.17;;;2.90;;
2173;SDS011;1093;51.424;11.764;2023-04-30T11:45:59;8.40;;;3.50;;
2173;SDS011;1093;51.424;11.764;2023-04-30T11:48:33;6.87;;;2.80;;
2173;SDS011;1093;51.424;11.764;2023-04-30T11:51:04;7.07;;;3.30;;
2173;SDS011;1093;51.424;11.764;2023-04-30T11:53:39;6.60;;;3.37;;
2173;SDS011;1093;51.424;11.764;2023-04-30T11:56:06;5.50;;;4.20;;
2173;SDS011;1093;51.424;11.764;2023-04-30T11:58:33;5.60;;;3.40;;
2173;SDS011;1093;51.424;11.764;2023-04-30T12:01:02;6.70;;;3.60;;
2173;SDS011;1093;51.424;11.764;2023-04-30T12:03:29;5.57;;;3.10;;
2173;SDS011;1093;51.424;11.764;2023-04-30T12:05:58;4.87;;;3.37;;
2173;SDS011;1093;51.424;11.764;2023-04-30T12:08:26;9.10;;;3.93;;
2173;SDS011;1093;51.424;11.764;2023-04-30T12:10:54;8.77;;;4.17;;
2173;SDS011;1093;51.424;11.764;2023-04-30T12:13:22;6.60;;;4.10;;
2173;SDS011;1093;51.424;11.764;2023-04-30T12:15:58;7.07;;;3.93;;
2173;SDS011;1093;51.424;11.764;2023-04-30T12:18:25;11.10;;;4.87;;
2173;SDS011;1093;51.424;11.764;2023-04-30T12:20:52;6.00;;;3.90;;
2173;SDS011;1093;51.424;11.764;2023-04-30T12:23:20;6.13;;;4.20;;
2173;SDS011;1093;51.424;11.764;2023-04-30T12:25:48;7.43;;;3.77;;
2173;SDS011;1093;51.424;11.764;2023-04-30T12:28:15;12.87;;;5.60;;
2173;SDS011;1093;51.424;11.764;2023-04-30T12:30:41;5.70;;;3.43;;
2173;SDS011;1093;51.424;11.764;2023-04-30T12:33:09;6.00;;;4.43;;
2173;SDS011;1093;51.424;11.764;2023-04-30T12:35:36;7.00;;;3.73;;
2173;SDS011;1093;51.424;11.764;2023-04-30T12:38:07;6.67;;;3.90;;
2173;SDS011;1093;51.424;11.764;2023-04-30T12:40:35;10.63;;;4.37;;
2173;SDS011;1093;51.424;11.764;2023-04-30T12:43:03;5.90;;;4.00;;
2173;SDS011;1093;51.424;11.764;2023-04-30T12:45:45;6.30;;;4.60;;
2173;SDS011;1093;51.424;11.764;2023-04-30T12:48:15;6.30;;;3.90;;
2173;SDS011;1093;51.424;11.764;2023-04-30T12:50:46;5.23;;;3.80;;
2173;SDS011;1093;51.424;11.764;2023-04-30T12:53:14;8.57;;;4.70;;
2173;SDS011;1093;51.424;11.764;2023-04-30T12:55:42;8.10;;;4.43;;
2173;SDS011;1093;51.424;11.764;2023-04-30T12:58:09;5.75;;;4.07;;
2173;SDS011;1093;51.424;11.764;2023-04-30T13:00:43;9.57;;;3.73;;
2173;SDS011;1093;51.424;11.764;2023-04-30T13:03:13;5.40;;;3.50;;
2173;SDS011;1093;51.424;11.764;2023-04-30T13:05:42;5.07;;;4.10;;
2173;SDS011;1093;51.424;11.764;2023-04-30T13:08:12;7.00;;;3.33;;
2173;SDS011;1093;51.424;11.764;2023-04-30T13:10:39;6.63;;;3.90;;
2173;SDS011;1093;51.424;11.764;2023-04-30T13:13:07;11.37;;;5.20;;
2173;SDS011;1093;51.424;11.764;2023-04-30T13:15:35;7.07;;;4.30;;
2173;SDS011;1093;51.424;11.764;2023-04-30T13:18:01;6.53;;;3.37;;
2173;SDS011;1093;51.424;11.764;2023-04-30T13:20:28;6.40;;;3.57;;
2173;SDS011;1093;51.424;11.764;2023-04-30T13:22:55;5.10;;;3.80;;
2173;SDS011;1093;51.424;11.764;2023-04-30T13:25:22;6.30;;;3.90;;
2173;SDS011;1093;51.424;11.764;2023-04-30T13:27:49;6.10;;;3.43;;
2173;SDS011;1093;51.424;11.764;2023-04-30T13:30:17;5.17;;;3.20;;
2173;SDS011;1093;51.424;11.764;2023-04-30T13:32:44;11.13;;;4.87;;
2173;SDS011;1093;51.424;11.764;2023-04-30T13:35:11;10.20;;;3.80;;
2173;SDS011;1093;51.424;11.764;2023-04-30T13:37:38;2.97;;;2.60;;
2173;SDS011;1093;51.424;11.764;2023-04-30T13:40:05;8.90;;;3.93;;
2173;SDS011;1093;51.424;11.764;2023-04-30T13:42:35;5.67;;;3.30;;
2173;SDS011;1093;51.424;11.764;2023-04-30T13:45:03;7.20;;;3.50;;
2173;SDS011;1093;51.424;11.764;2023-04-30T13:47:32;5.57;;;3.70;;
2173;SDS011;1093;51.424;11.764;2023-04-30T13:50:00;5.60;;;3.40;;
2173;SDS011;1093;51.424;11.764;2023-04-30T13:52:27;9.50;;;3.80;;
2173;SDS011;1093;51.424;11.764;2023-04-30T13:54:53;4.80;;;2.80;;
2173;SDS011;1093;51.424;11.764;2023-04-30T13:57:21;5.57;;;3.33;;
2173;SDS011;1093;51.424;11.764;2023-04-30T13:59:48;6.20;;;3.07;;
2173;SDS011;1093;51.424;11.764;2023-04-30T14:02:15;4.00;;;3.10;;
2173;SDS011;1093;51.424;11.764;2023-04-30T14:04:43;4.77;;;3.20;;
2173;SDS011;1093;51.424;11.764;2023-04-30T14:07:10;5.57;;;3.23;;
2173;SDS011;1093;51.424;11.764;2023-04-30T14:09:37;5.87;;;3.17;;
2173;SDS011;1093;51.424;11.764;2023-04-30T14:12:04;6.47;;;3.30;;
2173;SDS011;1093;51.424;11.764;2023-04-30T14:14:31;4.50;;;3.30;;
2173;SDS011;1093;51.424;11.764;2023-04-30T14:16:58;5.13;;;3.50;;
2173;SDS011;1093;51.424;11.764;2023-04-30T14:19:26;5.50;;;2.93;;
2173;SDS011;1093;51.424;11.764;2023-04-30T14:21:54;9.63;;;3.40;;
2173;SDS011;1093;51.424;11.764;2023-04-30T14:24:21;4.80;;;3.53;;
2173;SDS011;1093;51.424;11.764;2023-04-30T14:26:48;8.33;;;3.93;;
2173;SDS011;1093;51.424;11.764;2023-04-30T14:29:15;4.03;;;3.17;;
2173;SDS011;1093;51.424;11.764;2023-04-30T14:31:43;8.70;;;3.57;;
2173;SDS011;1093;51.424;11.764;2023-04-30T14:34:11;6.63;;;4.50;;
2173;SDS011;1093;51.424;11.764;2023-04-30T14:36:38;4.30;;;3.30;;
2173;SDS011;1093;51.424;11.764;2023-04-30T14:39:07;7.87;;;3.67;;
2173;SDS011;1093;51.424;11.764;2023-04-30T14:41:34;10.13;;;3.70;;
2173;SDS011;1093;51.424;11.764;2023-04-30T14:44:01;4.80;;;3.83;;
2173;SDS011;1093;51.424;11.764;2023-04-30T14:46:29;9.33;;;4.87;;
2173;SDS011;1093;51.424;11.764;2023-04-30T14:48:58;7.07;;;4.00;;
2173;SDS011;1093;51.424;11.764;2023-04-30T14:51:28;6.00;;;4.00;;
2173;SDS011;1093;51.424;11.764;2023-04-30T14:53:56;8.23;;;4.93;;
2173;SDS011;1093;51.424;11.764;2023-04-30T14:56:24;10.03;;;5.27;;
2173;SDS011;1093;51.424;11.764;2023-04-30T14:58:51;13.27;;;4.20;;
2173;SDS011;1093;51.424;11.764;2023-04-30T15:01:18;5.43;;;3.70;;